createdAt,value
2022-11-17T00:01:44.637Z,4.50
2022-11-17T00:04:14.612Z,4.54
2022-11-17T00:06:43.268Z,4.63
2022-11-17T00:09:17.462Z,4.59
2022-11-17T00:12:04.051Z,4.39
2022-11-17T00:14:36.793Z,4.42
2022-11-17T00:17:07.679Z,4.40
2022-11-17T00:19:55.776Z,4.35
2022-11-17T00:22:24.946Z,4.31
2022-11-17T00:24:53.585Z,4.32
2022-11-17T00:27:22.197Z,4.33
2022-11-17T00:29:50.910Z,4.28
2022-11-17T00:32:38.349Z,4.27
2022-11-17T00:35:08.755Z,4.27
2022-11-17T00:37:39.318Z,4.25
2022-11-17T00:40:08.783Z,4.25
2022-11-17T00:42:37.335Z,4.28
2022-11-17T00:45:06.741Z,4.26
2022-11-17T00:47:37.675Z,4.09
2022-11-17T00:50:08.817Z,4.14
2022-11-17T00:52:37.479Z,4.14
2022-11-17T00:55:06.948Z,4.21
2022-11-17T00:57:35.600Z,4.15
2022-11-17T01:00:04.904Z,4.20
2022-11-17T01:02:33.479Z,4.18
2022-11-17T01:05:02.031Z,4.08
2022-11-17T01:07:31.994Z,4.12
2022-11-17T01:10:00.611Z,4.17
2022-11-17T01:12:29.188Z,4.20
2022-11-17T01:14:57.819Z,4.18
2022-11-17T01:17:26.370Z,4.21
2022-11-17T01:19:54.962Z,4.23
2022-11-17T01:22:23.475Z,4.17
2022-11-17T01:24:53.475Z,4.21
2022-11-17T01:27:22.115Z,4.26
2022-11-17T01:29:50.675Z,4.25
2022-11-17T01:32:19.276Z,4.23
2022-11-17T01:34:49.315Z,4.14
2022-11-17T01:37:20.587Z,4.12
2022-11-17T01:39:49.563Z,4.16
2022-11-17T01:42:22.150Z,4.18
2022-11-17T01:45:00.690Z,4.11
2022-11-17T01:47:45.933Z,4.09
2022-11-17T01:50:37.231Z,4.17
2022-11-17T01:53:10.263Z,4.26
2022-11-17T01:55:45.283Z,4.21
2022-11-17T01:58:18.333Z,4.16
2022-11-17T02:00:47.347Z,4.15
2022-11-17T02:03:15.936Z,4.12
2022-11-17T02:05:52.877Z,4.11
2022-11-17T02:08:23.976Z,4.18
2022-11-17T02:10:54.355Z,4.00
2022-11-17T02:13:25.552Z,4.16
2022-11-17T02:15:54.190Z,4.12
2022-11-17T02:18:23.131Z,4.11
2022-11-17T02:21:07.964Z,4.10
2022-11-17T02:24:03.694Z,4.11
2022-11-17T02:26:58.944Z,4.10
2022-11-17T02:29:38.000Z,4.16
2022-11-17T02:32:10.908Z,4.20
2022-11-17T02:34:48.816Z,4.25
2022-11-17T02:37:27.977Z,4.30
2022-11-17T02:40:02.410Z,4.20
2022-11-17T02:42:55.663Z,4.12
2022-11-17T02:45:31.506Z,4.17
2022-11-17T02:48:01.878Z,4.16
2022-11-17T02:50:33.277Z,4.11
2022-11-17T02:53:02.094Z,4.17
2022-11-17T02:55:33.182Z,4.16
2022-11-17T02:58:01.791Z,4.10
2022-11-17T03:00:36.374Z,3.91
2022-11-17T03:03:26.722Z,4.14
2022-11-17T03:06:05.138Z,4.11
2022-11-17T03:08:46.045Z,4.08
2022-11-17T03:11:15.656Z,4.10
2022-11-17T03:13:49.569Z,4.12
2022-11-17T03:16:27.054Z,4.22
2022-11-17T03:19:12.798Z,4.11
2022-11-17T03:21:46.605Z,4.28
2022-11-17T03:24:22.738Z,3.81
2022-11-17T03:27:01.413Z,4.30
2022-11-17T03:29:33.800Z,4.32
2022-11-17T03:32:08.122Z,4.41
2022-11-17T03:34:43.802Z,4.16
2022-11-17T03:37:15.706Z,4.29
2022-11-17T03:39:48.843Z,3.82
2022-11-17T03:42:23.718Z,4.27
2022-11-17T03:44:56.681Z,4.27
2022-11-17T03:47:29.279Z,4.34
2022-11-17T03:50:01.339Z,4.33
2022-11-17T03:52:31.109Z,4.30
2022-11-17T03:55:00.013Z,4.24
2022-11-17T03:57:36.437Z,4.26
2022-11-17T04:00:08.226Z,4.22
2022-11-17T04:02:45.296Z,3.94
2022-11-17T04:05:16.354Z,4.16
2022-11-17T04:07:47.130Z,4.24
2022-11-17T04:10:17.631Z,4.25
2022-11-17T04:13:04.939Z,4.27
2022-11-17T04:15:47.838Z,4.35
2022-11-17T04:18:18.889Z,4.37
2022-11-17T04:20:50.902Z,4.34
2022-11-17T04:23:20.311Z,4.36
2022-11-17T04:26:07.833Z,4.38
2022-11-17T04:28:39.210Z,4.44
2022-11-17T04:31:13.941Z,4.44
2022-11-17T04:33:46.232Z,4.46
2022-11-17T04:36:17.640Z,4.54
2022-11-17T04:38:48.769Z,4.51
2022-11-17T04:41:36.202Z,4.44
2022-11-17T04:44:07.138Z,4.42
2022-11-17T04:46:37.742Z,4.42
2022-11-17T04:49:09.460Z,4.40
2022-11-17T04:51:45.321Z,4.49
2022-11-17T04:54:17.378Z,4.57
2022-11-17T04:56:46.533Z,4.57
2022-11-17T04:59:15.570Z,4.62
2022-11-17T05:01:44.351Z,4.65
2022-11-17T05:04:36.189Z,4.61
2022-11-17T05:07:05.811Z,4.63
2022-11-17T05:09:34.515Z,4.63
2022-11-17T05:12:21.087Z,4.67
2022-11-17T05:14:50.616Z,4.71
2022-11-17T05:17:18.685Z,4.79
2022-11-17T05:19:49.960Z,4.83
2022-11-17T05:22:38.478Z,4.70
2022-11-17T05:25:08.353Z,4.62
2022-11-17T05:27:37.664Z,4.51
2022-11-17T05:30:08.941Z,4.60
2022-11-17T05:32:37.599Z,4.62
2022-11-17T05:35:09.163Z,4.55
2022-11-17T05:37:37.995Z,4.53
2022-11-17T05:40:08.130Z,4.58
2022-11-17T05:42:37.056Z,4.69
2022-11-17T05:45:06.657Z,4.67
2022-11-17T05:47:35.748Z,4.72
2022-11-17T05:50:06.185Z,4.74
2022-11-17T05:52:34.982Z,4.75
2022-11-17T05:55:03.805Z,4.66
2022-11-17T05:57:34.845Z,4.67
2022-11-17T06:00:05.121Z,4.69
2022-11-17T06:02:46.422Z,4.71
2022-11-17T06:05:20.161Z,4.66
2022-11-17T06:07:50.126Z,4.67
2022-11-17T06:10:19.145Z,4.65
2022-11-17T06:12:47.728Z,4.69
2022-11-17T06:15:16.411Z,4.74
2022-11-17T06:17:51.277Z,4.81
2022-11-17T06:20:25.682Z,4.89
2022-11-17T06:22:56.637Z,4.82
2022-11-17T06:25:25.569Z,4.75
2022-11-17T06:27:55.091Z,4.74
2022-11-17T06:30:23.746Z,4.79
2022-11-17T06:32:53.990Z,4.85
2022-11-17T06:35:25.109Z,4.83
2022-11-17T06:37:56.154Z,4.86
2022-11-17T06:40:24.768Z,4.90
2022-11-17T06:43:08.453Z,4.85
2022-11-17T06:45:38.534Z,4.76
2022-11-17T06:48:08.877Z,4.86
2022-11-17T06:50:39.175Z,4.85
2022-11-17T06:53:10.019Z,4.88
2022-11-17T06:55:39.850Z,4.89
2022-11-17T06:58:11.604Z,4.89
2022-11-17T07:00:40.492Z,4.90
2022-11-17T07:03:10.981Z,4.92
2022-11-17T07:05:41.370Z,4.80
2022-11-17T07:08:11.074Z,4.81
2022-11-17T07:10:42.538Z,4.89
2022-11-17T07:13:13.667Z,4.99
2022-11-17T07:15:42.236Z,4.99
2022-11-17T07:18:10.920Z,4.93
2022-11-17T07:20:40.909Z,4.90
2022-11-17T07:23:09.657Z,4.93
2022-11-17T07:25:38.389Z,4.96
2022-11-17T07:28:07.237Z,4.96
2022-11-17T07:30:36.268Z,4.99
2022-11-17T07:33:06.121Z,5.05
2022-11-17T07:35:36.819Z,5.10
2022-11-17T07:38:06.813Z,5.12
2022-11-17T07:40:35.652Z,5.12
2022-11-17T07:43:04.242Z,5.07
2022-11-17T07:45:36.216Z,5.05
2022-11-17T07:48:07.051Z,5.07
2022-11-17T07:50:37.058Z,5.09
2022-11-17T07:53:07.215Z,5.08
2022-11-17T07:55:35.789Z,5.12
2022-11-17T07:58:04.369Z,5.19
2022-11-17T08:00:33.764Z,5.20
2022-11-17T08:03:04.044Z,5.22
2022-11-17T08:05:41.589Z,5.21
2022-11-17T08:08:13.396Z,5.25
2022-11-17T08:10:43.085Z,5.24
2022-11-17T08:13:14.040Z,5.32
2022-11-17T08:15:42.818Z,5.33
2022-11-17T08:18:11.400Z,5.38
2022-11-17T08:20:40.098Z,5.50
2022-11-17T08:23:08.945Z,5.47
2022-11-17T08:25:38.950Z,5.52
2022-11-17T08:28:07.771Z,5.55
2022-11-17T08:30:36.547Z,5.57
2022-11-17T08:33:05.280Z,5.59
2022-11-17T08:35:37.483Z,5.53
2022-11-17T08:38:06.903Z,5.62
2022-11-17T08:40:35.540Z,5.61
2022-11-17T08:43:05.848Z,5.61
2022-11-17T08:45:34.498Z,5.69
2022-11-17T08:48:04.041Z,5.73
2022-11-17T08:50:32.656Z,5.67
2022-11-17T08:53:01.216Z,5.68
2022-11-17T08:55:29.937Z,5.76
2022-11-17T08:57:58.616Z,5.84
2022-11-17T09:00:28.636Z,5.87
2022-11-17T09:02:57.240Z,5.88
2022-11-17T09:05:25.925Z,5.79
2022-11-17T09:07:54.674Z,5.92
2022-11-17T09:10:23.301Z,6.01
2022-11-17T09:12:55.866Z,6.00
2022-11-17T09:15:24.800Z,5.94
2022-11-17T09:17:54.812Z,6.00
2022-11-17T09:20:23.714Z,6.00
2022-11-17T09:22:52.545Z,6.03
2022-11-17T09:25:21.268Z,6.05
2022-11-17T09:27:52.534Z,6.00
2022-11-17T09:30:22.339Z,6.00
2022-11-17T09:32:51.629Z,6.02
2022-11-17T09:35:22.754Z,6.16
2022-11-17T09:37:51.421Z,6.24
2022-11-17T09:40:21.063Z,6.19
2022-11-17T09:42:50.353Z,6.24
2022-11-17T09:45:23.552Z,6.24
2022-11-17T09:48:18.600Z,6.10
2022-11-17T09:50:51.612Z,6.07
2022-11-17T09:53:29.626Z,6.05
2022-11-17T09:56:02.679Z,6.12
2022-11-17T09:58:35.626Z,6.05
2022-11-17T10:01:05.187Z,6.08
2022-11-17T10:03:41.775Z,5.65
2022-11-17T10:06:18.070Z,6.06
2022-11-17T10:08:54.669Z,6.09
2022-11-17T10:11:35.116Z,6.04
2022-11-17T10:14:11.710Z,6.06
2022-11-17T10:16:42.157Z,5.91
2022-11-17T10:19:18.004Z,5.93
2022-11-17T10:21:51.774Z,5.96
2022-11-17T10:24:37.970Z,6.02
2022-11-17T10:27:16.525Z,6.11
2022-11-17T10:29:58.576Z,6.20
2022-11-17T10:32:27.798Z,6.26
2022-11-17T10:34:56.429Z,6.29
2022-11-17T10:37:32.226Z,6.20
2022-11-17T10:40:25.269Z,6.19
2022-11-17T10:43:17.764Z,6.37
2022-11-17T10:45:47.279Z,6.44
2022-11-17T10:48:25.687Z,6.31
2022-11-17T10:50:56.722Z,6.41
2022-11-17T10:53:41.331Z,6.53
2022-11-17T10:56:16.238Z,6.52
2022-11-17T10:59:01.093Z,6.58
2022-11-17T11:01:35.179Z,6.61
2022-11-17T11:04:04.761Z,6.46
2022-11-17T11:06:35.123Z,6.46
2022-11-17T11:09:12.564Z,6.38
2022-11-17T11:11:47.792Z,6.50
2022-11-17T11:14:24.963Z,6.61
2022-11-17T11:16:55.695Z,6.48
2022-11-17T11:19:24.361Z,6.31
2022-11-17T11:22:24.749Z,6.36
2022-11-17T11:25:01.769Z,6.50
2022-11-17T11:27:47.333Z,6.44
2022-11-17T11:30:19.352Z,6.62
2022-11-17T11:33:02.054Z,6.70
2022-11-17T11:35:46.088Z,6.81
2022-11-17T11:38:43.511Z,6.83
2022-11-17T11:41:32.685Z,6.62
2022-11-17T11:44:20.072Z,6.67
2022-11-17T11:46:57.042Z,6.74
2022-11-17T11:49:35.437Z,6.80
2022-11-17T11:52:07.995Z,6.78
2022-11-17T11:54:46.324Z,6.67
2022-11-17T11:57:26.137Z,6.65
2022-11-17T12:00:04.520Z,6.56
2022-11-17T12:02:43.365Z,6.52
2022-11-17T12:05:22.241Z,6.45
2022-11-17T12:07:59.064Z,6.40
2022-11-17T12:10:32.956Z,6.52
2022-11-17T12:13:05.006Z,6.48
2022-11-17T12:15:35.930Z,6.53
2022-11-17T12:18:11.423Z,6.46
2022-11-17T12:20:58.918Z,6.52
2022-11-17T12:23:50.764Z,6.56
2022-11-17T12:26:25.558Z,6.40
2022-11-17T12:29:29.571Z,6.39
2022-11-17T12:32:00.000Z,6.49
2022-11-17T12:34:31.671Z,6.33
2022-11-17T12:37:26.403Z,6.32
2022-11-17T12:40:03.885Z,6.26
2022-11-17T12:42:33.989Z,6.19
2022-11-17T12:45:11.522Z,6.30
2022-11-17T12:47:44.349Z,6.37
2022-11-17T12:50:33.195Z,6.26
2022-11-17T12:53:25.020Z,6.13
2022-11-17T12:56:17.054Z,6.15
2022-11-17T12:58:59.750Z,6.17
2022-11-17T13:01:45.607Z,5.98
2022-11-17T13:04:18.735Z,6.10
2022-11-17T13:07:01.888Z,6.14
2022-11-17T13:09:33.344Z,6.19
2022-11-17T13:12:05.160Z,6.20
2022-11-17T13:14:35.419Z,6.11
2022-11-17T13:17:12.327Z,6.16
2022-11-17T13:19:42.754Z,6.15
2022-11-17T13:22:18.688Z,6.10
2022-11-17T13:24:50.073Z,5.78
2022-11-17T13:27:23.179Z,5.99
2022-11-17T13:29:52.186Z,6.00
2022-11-17T13:32:24.826Z,5.96
2022-11-17T13:34:56.558Z,5.99
2022-11-17T13:37:26.962Z,6.01
2022-11-17T13:39:57.432Z,6.10
2022-11-17T13:42:28.609Z,6.05
2022-11-17T13:44:59.442Z,5.98
2022-11-17T13:47:45.392Z,5.92
2022-11-17T13:50:40.568Z,5.84
2022-11-17T13:53:26.393Z,5.89
2022-11-17T13:55:55.287Z,5.99
2022-11-17T13:58:35.376Z,5.92
2022-11-17T14:01:04.067Z,5.84
2022-11-17T14:03:39.269Z,5.95
2022-11-17T14:06:10.028Z,5.93
2022-11-17T14:08:39.958Z,5.92
2022-11-17T14:11:22.660Z,5.96
2022-11-17T14:13:53.243Z,5.97
2022-11-17T14:16:26.001Z,5.85
2022-11-17T14:19:04.831Z,5.89
2022-11-17T14:21:34.200Z,5.78
2022-11-17T14:24:13.335Z,5.80
2022-11-17T14:26:44.864Z,5.81
2022-11-17T14:29:14.538Z,5.83
2022-11-17T14:31:43.327Z,5.85
2022-11-17T14:34:13.717Z,5.84
2022-11-17T14:36:42.744Z,5.80
2022-11-17T14:39:20.617Z,5.74
2022-11-17T14:41:51.526Z,5.75
2022-11-17T14:44:21.868Z,5.68
2022-11-17T14:46:50.476Z,5.71
2022-11-17T14:49:20.463Z,5.62
2022-11-17T14:51:50.451Z,5.65
2022-11-17T14:54:19.071Z,5.62
2022-11-17T14:56:47.634Z,5.52
2022-11-17T14:59:18.784Z,5.50
2022-11-17T15:01:47.656Z,5.56
2022-11-17T15:07:07.351Z,5.61
2022-11-17T15:09:35.996Z,5.51
2022-11-17T15:12:04.764Z,5.44
2022-11-17T15:14:33.401Z,5.44
2022-11-17T15:17:03.613Z,5.38
2022-11-17T15:19:32.342Z,5.36
2022-11-17T15:22:01.321Z,5.33
2022-11-17T15:24:31.386Z,5.31
2022-11-17T15:27:00.089Z,5.16
2022-11-17T15:29:28.690Z,5.18
2022-11-17T15:31:57.294Z,5.10
2022-11-17T15:34:25.843Z,5.11
2022-11-17T15:36:54.511Z,5.13
2022-11-17T15:39:23.268Z,5.16
2022-11-17T15:41:53.367Z,5.07
2022-11-17T15:44:21.994Z,5.06
2022-11-17T15:46:50.529Z,5.02
2022-11-17T15:49:19.416Z,4.99
2022-11-17T15:51:48.391Z,4.98
2022-11-17T15:54:20.661Z,4.92
2022-11-17T15:56:50.948Z,4.85
2022-11-17T15:59:20.940Z,4.89
2022-11-17T16:01:50.055Z,4.90
2022-11-17T16:04:18.646Z,4.80
2022-11-17T16:06:48.427Z,4.76
2022-11-17T16:09:17.722Z,4.83
2022-11-17T16:11:46.879Z,4.77
2022-11-17T16:14:15.834Z,4.79
2022-11-17T16:16:47.883Z,4.75
2022-11-17T16:19:16.554Z,4.72
2022-11-17T16:21:45.482Z,4.62
2022-11-17T16:24:14.519Z,4.60
2022-11-17T16:26:44.532Z,4.65
2022-11-17T16:29:13.661Z,4.69
2022-11-17T16:31:42.457Z,4.66
2022-11-17T16:34:15.817Z,4.68
2022-11-17T16:36:45.064Z,4.63
2022-11-17T16:39:17.017Z,4.69
2022-11-17T16:41:47.303Z,4.59
2022-11-17T16:44:19.061Z,4.58
2022-11-17T16:46:49.829Z,4.46
2022-11-17T16:49:20.977Z,4.46
2022-11-17T16:51:50.711Z,4.49
2022-11-17T16:54:19.489Z,4.58
2022-11-17T16:56:48.212Z,4.54
2022-11-17T16:59:17.372Z,4.51
2022-11-17T17:01:46.550Z,4.49
2022-11-17T17:04:15.253Z,4.55
2022-11-17T17:06:46.317Z,4.52
2022-11-17T17:09:16.326Z,4.48
2022-11-17T17:11:45.554Z,4.53
2022-11-17T17:14:16.229Z,4.50
2022-11-17T17:16:45.112Z,4.49
2022-11-17T17:19:15.509Z,4.47
2022-11-17T17:21:46.049Z,4.45
2022-11-17T17:24:15.001Z,4.48
2022-11-17T17:26:43.594Z,4.51
2022-11-17T17:29:13.651Z,4.49
2022-11-17T17:31:43.505Z,4.50
2022-11-17T17:34:15.174Z,4.49
2022-11-17T17:36:45.115Z,4.49
2022-11-17T17:42:02.274Z,4.38
2022-11-17T17:44:30.931Z,4.38
2022-11-17T17:46:59.512Z,4.35
2022-11-17T17:49:28.133Z,4.22
2022-11-17T17:51:58.124Z,4.19
2022-11-17T17:54:26.701Z,4.20
2022-11-17T17:56:57.204Z,4.25
2022-11-17T17:59:25.802Z,4.25
2022-11-17T18:01:54.380Z,4.28
2022-11-17T18:04:23.181Z,4.18
2022-11-17T18:06:51.860Z,4.22
2022-11-17T18:09:22.130Z,4.12
2022-11-17T18:11:51.381Z,4.15
2022-11-17T18:14:24.519Z,4.18
2022-11-17T18:16:53.712Z,4.23
2022-11-17T18:19:24.878Z,4.21
2022-11-17T18:21:57.057Z,4.22
2022-11-17T18:24:27.598Z,4.15
2022-11-17T18:26:56.246Z,4.17
2022-11-17T18:29:24.924Z,4.21
2022-11-17T18:31:53.716Z,4.21
2022-11-17T18:34:24.109Z,4.15
2022-11-17T18:36:55.524Z,4.13
2022-11-17T18:39:24.446Z,4.11
2022-11-17T18:41:54.455Z,4.12
2022-11-17T18:44:23.138Z,4.12
2022-11-17T18:46:51.860Z,4.11
2022-11-17T18:49:20.826Z,4.15
2022-11-17T18:51:50.433Z,4.18
2022-11-17T18:54:19.226Z,4.14
2022-11-17T18:56:49.945Z,4.06
2022-11-17T18:59:20.104Z,4.05
2022-11-17T19:01:49.058Z,4.09
2022-11-17T19:04:18.287Z,4.10
2022-11-17T19:06:47.069Z,4.12
2022-11-17T19:09:16.322Z,4.12
2022-11-17T19:11:45.077Z,4.14
2022-11-17T19:14:13.726Z,4.13
2022-11-17T19:16:45.299Z,4.09
2022-11-17T19:19:15.340Z,4.08
2022-11-17T19:21:45.133Z,4.08
2022-11-17T19:24:15.233Z,4.09
2022-11-17T19:26:44.095Z,4.12
2022-11-17T19:29:17.025Z,4.08
2022-11-17T19:31:48.688Z,4.07
2022-11-17T19:34:17.703Z,3.63
2022-11-17T19:36:46.343Z,4.03
2022-11-17T19:39:17.003Z,4.02
2022-11-17T19:41:47.732Z,4.03
2022-11-17T19:44:16.476Z,4.06
2022-11-17T19:46:45.106Z,4.08
2022-11-17T19:49:15.492Z,4.05
2022-11-17T19:51:44.322Z,4.00
2022-11-17T19:54:14.581Z,4.01
2022-11-17T19:56:43.270Z,3.92
2022-11-17T19:59:16.015Z,3.90
2022-11-17T20:01:45.964Z,3.89
2022-11-17T20:04:16.137Z,3.90
2022-11-17T20:06:44.951Z,3.89
2022-11-17T20:09:15.367Z,3.93
2022-11-17T20:11:44.629Z,3.90
2022-11-17T20:14:14.374Z,3.78
2022-11-17T20:16:43.011Z,3.81
2022-11-17T20:19:12.146Z,3.82
2022-11-17T20:21:42.219Z,3.72
2022-11-17T20:24:11.336Z,3.71
2022-11-17T20:26:43.132Z,3.70
2022-11-17T20:29:11.794Z,3.71
2022-11-17T20:31:40.376Z,3.75
2022-11-17T20:34:13.345Z,3.79
2022-11-17T20:36:43.675Z,3.80
2022-11-17T20:39:12.568Z,3.75
2022-11-17T20:41:41.176Z,3.79
2022-11-17T20:44:23.996Z,3.76
2022-11-17T20:46:54.876Z,3.69
2022-11-17T20:49:23.919Z,3.67
2022-11-17T20:51:53.859Z,3.73
2022-11-17T20:54:22.533Z,3.68
2022-11-17T20:56:51.161Z,3.63
2022-11-17T20:59:20.342Z,3.68
2022-11-17T21:01:50.473Z,3.68
2022-11-17T21:04:19.347Z,3.63
2022-11-17T21:06:47.925Z,3.54
2022-11-17T21:09:18.369Z,3.61
2022-11-17T21:12:01.097Z,3.63
2022-11-17T21:14:30.578Z,3.63
2022-11-17T21:17:01.152Z,3.63
2022-11-17T21:19:32.358Z,3.54
2022-11-17T21:22:02.836Z,3.58
2022-11-17T21:24:32.810Z,3.60
2022-11-17T21:27:01.406Z,3.54
2022-11-17T21:29:29.984Z,3.50
2022-11-17T21:31:58.631Z,3.54
2022-11-17T21:34:27.244Z,3.55
2022-11-17T21:36:55.896Z,3.56
2022-11-17T21:39:24.636Z,3.62
2022-11-17T21:41:54.633Z,3.69
2022-11-17T21:44:23.385Z,3.51
2022-11-17T21:46:52.005Z,3.53
2022-11-17T21:49:20.636Z,3.52
2022-11-17T21:51:49.262Z,3.41
2022-11-17T21:54:17.936Z,3.35
2022-11-17T21:56:46.654Z,3.35
2022-11-17T21:59:17.590Z,3.44
2022-11-17T22:01:46.417Z,3.48
2022-11-17T22:04:15.839Z,3.52
2022-11-17T22:06:44.732Z,3.48
2022-11-17T22:09:13.909Z,3.44
2022-11-17T22:11:42.690Z,3.42
2022-11-17T22:14:13.041Z,3.35
2022-11-17T22:16:44.631Z,3.39
2022-11-17T22:19:14.575Z,3.40
2022-11-17T22:21:43.905Z,3.49
2022-11-17T22:24:13.845Z,3.49
2022-11-17T22:26:43.576Z,3.46
2022-11-17T22:29:14.953Z,3.50
2022-11-17T22:31:45.621Z,3.45
2022-11-17T22:34:14.662Z,3.52
2022-11-17T22:36:43.275Z,3.35
2022-11-17T22:39:12.163Z,3.35
2022-11-17T22:41:40.897Z,3.36
2022-11-17T22:44:13.224Z,3.35
2022-11-17T22:46:43.208Z,3.36
2022-11-17T22:49:13.824Z,3.36
2022-11-17T22:52:00.166Z,3.30
2022-11-17T22:54:28.845Z,3.32
2022-11-17T22:56:57.564Z,3.29
2022-11-17T22:59:27.215Z,3.16
2022-11-17T23:01:56.198Z,3.19
2022-11-17T23:04:26.240Z,3.18
2022-11-17T23:06:55.001Z,3.24
2022-11-17T23:09:23.638Z,3.22
2022-11-17T23:11:52.285Z,3.21
2022-11-17T23:14:21.087Z,3.24
2022-11-17T23:16:49.741Z,3.29
2022-11-17T23:19:18.499Z,3.21
2022-11-17T23:21:48.887Z,3.22
2022-11-17T23:24:17.587Z,3.15
2022-11-17T23:26:46.187Z,3.23
2022-11-17T23:29:15.120Z,3.26
2022-11-17T23:31:44.143Z,3.16
2022-11-17T23:34:13.222Z,3.13
2022-11-17T23:36:42.027Z,3.14
2022-11-17T23:39:12.281Z,3.22
2022-11-17T23:41:41.005Z,3.21
2022-11-17T23:44:09.652Z,3.21
2022-11-17T23:46:38.366Z,3.20
2022-11-17T23:49:07.071Z,3.17
2022-11-17T23:51:36.342Z,3.08
2022-11-17T23:54:05.234Z,3.02
2022-11-17T23:56:35.892Z,3.11
2022-11-17T23:59:04.760Z,3.13
